createdAt,value
2016-05-12T00:00:09.195Z,16.9
2016-05-12T00:00:19.195Z,16.9
2016-05-12T00:00:29.180Z,16.8
2016-05-12T00:00:39.183Z,16.9
2016-05-12T00:00:49.651Z,16.9
2016-05-12T00:00:59.526Z,16.9
2016-05-12T00:01:09.183Z,16.8
2016-05-12T00:01:19.308Z,16.9
2016-05-12T00:01:29.198Z,16.9
2016-05-12T00:01:39.153Z,16.8
2016-05-12T00:01:49.153Z,16.8
2016-05-12T00:01:59.153Z,16.8
2016-05-12T00:02:09.138Z,16.8
2016-05-12T00:02:19.138Z,16.9
2016-05-12T00:02:29.138Z,16.8
2016-05-12T00:02:39.141Z,16.9
2016-05-12T00:02:49.141Z,16.9
2016-05-12T00:02:59.125Z,16.9
2016-05-12T00:03:09.125Z,16.8
2016-05-12T00:03:19.109Z,16.9
2016-05-12T00:03:29.109Z,16.8
2016-05-12T00:03:39.112Z,16.8
2016-05-12T00:03:49.097Z,16.7
2016-05-12T00:03:59.097Z,16.9
2016-05-12T00:04:09.097Z,16.8
2016-05-12T00:04:19.097Z,16.8
2016-05-12T00:04:29.097Z,16.9
2016-05-12T00:04:39.083Z,16.8
2016-05-12T00:04:49.083Z,16.9
2016-05-12T00:04:59.068Z,16.8
2016-05-12T00:05:09.068Z,16.9
2016-05-12T00:05:19.068Z,16.8
2016-05-12T00:05:29.068Z,16.8
2016-05-12T00:05:39.055Z,16.8
2016-05-12T00:05:49.055Z,16.8
2016-05-12T00:05:59.055Z,16.9
2016-05-12T00:06:09.039Z,16.8
2016-05-12T00:06:19.039Z,16.7
2016-05-12T00:06:29.039Z,16.9
2016-05-12T00:06:39.041Z,16.8
2016-05-12T00:06:49.026Z,16.8
2016-05-12T00:06:59.026Z,16.7
2016-05-12T00:07:09.026Z,16.8
2016-05-12T00:07:19.010Z,16.7
2016-05-12T00:07:29.010Z,16.7
2016-05-12T00:07:38.997Z,16.8
2016-05-12T00:07:48.997Z,16.7
2016-05-12T00:07:58.997Z,16.8
2016-05-12T00:08:08.997Z,16.8
2016-05-12T00:08:18.982Z,16.8
2016-05-12T00:08:28.982Z,16.7
2016-05-12T00:08:38.985Z,16.8
2016-05-12T00:08:48.969Z,16.7
2016-05-12T00:08:58.969Z,16.8
2016-05-12T00:09:08.969Z,16.8
2016-05-12T00:09:18.954Z,16.8
2016-05-12T00:09:28.954Z,16.8
2016-05-12T00:09:38.956Z,16.8
2016-05-12T00:09:48.956Z,16.7
2016-05-12T00:09:58.940Z,16.7
2016-05-12T00:10:08.940Z,16.7
2016-05-12T00:10:18.940Z,16.7
2016-05-12T00:10:28.924Z,16.7
2016-05-12T00:10:38.928Z,16.8
2016-05-12T00:10:48.928Z,16.8
2016-05-12T00:10:58.913Z,16.7
2016-05-12T00:11:08.913Z,16.7
2016-05-12T00:11:18.913Z,16.7
2016-05-12T00:11:28.913Z,16.7
2016-05-12T00:11:38.899Z,16.7
2016-05-12T00:11:48.899Z,16.8
2016-05-12T00:11:58.883Z,16.8
2016-05-12T00:12:08.883Z,16.8
2016-05-12T00:12:18.883Z,16.8
2016-05-12T00:12:28.883Z,16.8
2016-05-12T00:12:38.871Z,16.7
2016-05-12T00:12:48.871Z,16.9
2016-05-12T00:12:58.871Z,16.8
2016-05-12T00:13:08.855Z,16.8
2016-05-12T00:13:18.855Z,16.8
2016-05-12T00:13:28.855Z,16.7
2016-05-12T00:13:38.858Z,16.8
2016-05-12T00:13:48.858Z,16.8
2016-05-12T00:13:58.843Z,16.8
2016-05-12T00:14:08.843Z,16.7
2016-05-12T00:14:18.827Z,16.7
2016-05-12T00:14:28.827Z,16.8
2016-05-12T00:14:38.829Z,16.8
2016-05-12T00:14:48.829Z,16.8
2016-05-12T00:14:58.813Z,16.8
2016-05-12T00:15:08.829Z,16.8
2016-05-12T00:15:18.798Z,16.8
2016-05-12T00:15:28.798Z,16.7
2016-05-12T00:15:38.801Z,16.8
2016-05-12T00:15:48.785Z,16.8
2016-05-12T00:15:58.785Z,16.8
2016-05-12T00:16:08.785Z,16.8
2016-05-12T00:16:18.785Z,16.7
2016-05-12T00:16:28.769Z,16.8
2016-05-12T00:16:38.771Z,16.8
2016-05-12T00:16:48.771Z,16.8
2016-05-12T00:16:58.771Z,16.7
2016-05-12T00:17:08.756Z,16.7
2016-05-12T00:17:18.756Z,16.8
2016-05-12T00:17:28.756Z,16.8
2016-05-12T00:17:38.743Z,16.7
2016-05-12T00:17:48.743Z,16.7
2016-05-12T00:17:58.743Z,16.8
2016-05-12T00:18:08.728Z,16.8
2016-05-12T00:18:18.728Z,16.8
2016-05-12T00:18:28.728Z,16.8
2016-05-12T00:18:38.715Z,16.8
2016-05-12T00:18:48.715Z,16.7
2016-05-12T00:18:58.715Z,16.8
2016-05-12T00:19:08.715Z,16.8
2016-05-12T00:19:18.715Z,16.7
2016-05-12T00:19:28.699Z,16.8
2016-05-12T00:19:38.702Z,16.8
2016-05-12T00:19:48.687Z,16.7
2016-05-12T00:19:58.687Z,16.8
2016-05-12T00:20:08.687Z,16.7
2016-05-12T00:20:18.671Z,16.8
2016-05-12T00:20:28.671Z,16.8
2016-05-12T00:20:38.673Z,16.8
2016-05-12T00:20:48.657Z,16.7
2016-05-12T00:20:58.657Z,16.7
2016-05-12T00:21:08.657Z,16.8
2016-05-12T00:21:18.657Z,16.8
2016-05-12T00:21:28.642Z,16.8
2016-05-12T00:21:38.645Z,16.8
2016-05-12T00:21:48.645Z,16.8
2016-05-12T00:21:58.629Z,16.8
2016-05-12T00:22:08.629Z,16.8
2016-05-12T00:22:18.629Z,16.7
2016-05-12T00:22:28.614Z,16.7
2016-05-12T00:22:38.616Z,16.8
2016-05-12T00:22:48.616Z,16.7
2016-05-12T00:22:58.600Z,16.7
2016-05-12T00:23:08.600Z,16.8
2016-05-12T00:23:18.600Z,16.8
2016-05-12T00:23:28.600Z,16.8
2016-05-12T00:23:38.588Z,16.8
2016-05-12T00:23:48.588Z,16.8
2016-05-12T00:23:58.573Z,16.8
2016-05-12T00:24:08.573Z,16.8
2016-05-12T00:24:18.573Z,16.7
2016-05-12T00:24:28.573Z,16.8
2016-05-12T00:24:38.576Z,16.8
2016-05-12T00:24:48.560Z,16.8
2016-05-12T00:24:58.560Z,16.7
2016-05-12T00:25:08.560Z,16.8
2016-05-12T00:25:18.544Z,16.8
2016-05-12T00:25:28.544Z,16.7
2016-05-12T00:25:38.562Z,16.8
2016-05-12T00:25:48.531Z,16.7
2016-05-12T00:25:58.531Z,16.8
2016-05-12T00:26:08.531Z,16.7
2016-05-12T00:26:18.531Z,16.7
2016-05-12T00:26:28.515Z,16.8
2016-05-12T00:26:38.517Z,16.8
2016-05-12T00:26:48.502Z,16.8
2016-05-12T00:26:58.502Z,16.8
2016-05-12T00:27:08.502Z,16.8
2016-05-12T00:27:18.486Z,16.8
2016-05-12T00:27:28.486Z,16.8
2016-05-12T00:27:38.489Z,16.8
2016-05-12T00:27:48.473Z,16.7
2016-05-12T00:27:58.489Z,16.8
2016-05-12T00:28:08.473Z,16.7
2016-05-12T00:28:18.473Z,16.8
2016-05-12T00:28:28.473Z,16.7
2016-05-12T00:28:38.460Z,16.8
2016-05-12T00:28:48.460Z,16.7
2016-05-12T00:28:58.444Z,16.8
2016-05-12T00:29:08.444Z,16.7
2016-05-12T00:29:18.444Z,16.8
2016-05-12T00:29:28.444Z,16.8
2016-05-12T00:29:38.447Z,16.8
2016-05-12T00:29:48.431Z,16.8
2016-05-12T00:29:58.416Z,16.8
2016-05-12T00:30:08.416Z,16.7
2016-05-12T00:30:18.416Z,16.7
2016-05-12T00:30:28.416Z,16.7
2016-05-12T00:30:38.403Z,16.7
2016-05-12T00:30:48.403Z,16.8
2016-05-12T00:30:58.403Z,16.6
2016-05-12T00:31:08.388Z,16.7
2016-05-12T00:31:18.388Z,16.7
2016-05-12T00:31:28.497Z,16.8
2016-05-12T00:31:38.391Z,16.8
2016-05-12T00:31:48.375Z,16.7
2016-05-12T00:31:58.375Z,16.8
2016-05-12T00:32:08.375Z,16.8
2016-05-12T00:32:18.359Z,16.8
2016-05-12T00:32:28.359Z,16.6
2016-05-12T00:32:38.362Z,16.7
2016-05-12T00:32:48.362Z,16.8
2016-05-12T00:32:58.347Z,16.6
2016-05-12T00:33:08.347Z,16.7
2016-05-12T00:33:18.331Z,16.6
2016-05-12T00:33:28.331Z,16.7
2016-05-12T00:33:38.333Z,16.7
2016-05-12T00:33:48.333Z,16.7
2016-05-12T00:33:58.317Z,16.7
2016-05-12T00:34:08.317Z,16.7
2016-05-12T00:34:18.317Z,16.7
2016-05-12T00:34:28.317Z,16.7
2016-05-12T00:34:38.305Z,16.6
2016-05-12T00:34:48.305Z,16.6
2016-05-12T00:34:58.289Z,16.6
2016-05-12T00:35:08.289Z,16.7
2016-05-12T00:35:18.289Z,16.7
2016-05-12T00:35:28.289Z,16.7
2016-05-12T00:35:38.277Z,16.7
2016-05-12T00:35:48.277Z,16.7
2016-05-12T00:35:58.261Z,16.7
2016-05-12T00:36:08.261Z,16.7
2016-05-12T00:36:18.261Z,16.7
2016-05-12T00:36:28.261Z,16.6
2016-05-12T00:36:38.263Z,16.7
2016-05-12T00:36:48.247Z,16.7
2016-05-12T00:36:58.247Z,16.7
2016-05-12T00:37:08.247Z,16.6
2016-05-12T00:37:18.232Z,16.6
2016-05-12T00:37:28.232Z,16.7
2016-05-12T00:37:38.219Z,16.6
2016-05-12T00:37:48.219Z,16.6
2016-05-12T00:37:58.219Z,16.6
2016-05-12T00:38:08.219Z,16.5
2016-05-12T00:38:18.203Z,16.6
2016-05-12T00:38:28.203Z,16.6
2016-05-12T00:38:38.206Z,16.6
2016-05-12T00:38:48.206Z,16.5
2016-05-12T00:38:58.191Z,16.6
2016-05-12T00:39:08.191Z,16.5
2016-05-12T00:39:18.175Z,16.6
2016-05-12T00:39:28.175Z,16.6
2016-05-12T00:39:38.178Z,16.6
2016-05-12T00:39:48.163Z,16.6
2016-05-12T00:39:58.163Z,16.6
2016-05-12T00:40:08.163Z,16.6
2016-05-12T00:40:18.163Z,16.5
2016-05-12T00:40:28.147Z,16.5
2016-05-12T00:40:38.149Z,16.6
2016-05-12T00:40:48.149Z,16.6
2016-05-12T00:40:58.133Z,16.6
2016-05-12T00:41:08.133Z,16.6
2016-05-12T00:41:18.133Z,16.6
2016-05-12T00:41:28.118Z,16.5
2016-05-12T00:41:38.121Z,16.5
2016-05-12T00:41:48.121Z,16.6
2016-05-12T00:41:58.121Z,16.5
2016-05-12T00:42:08.121Z,16.6
2016-05-12T00:42:18.105Z,16.6
2016-05-12T00:42:28.105Z,16.5
2016-05-12T00:42:38.091Z,16.6
2016-05-12T00:42:48.091Z,16.6
2016-05-12T00:42:58.091Z,16.6
2016-05-12T00:43:08.076Z,16.6
2016-05-12T00:43:18.076Z,16.6
2016-05-12T00:43:28.091Z,16.6
2016-05-12T00:43:38.094Z,16.6
2016-05-12T00:43:48.063Z,16.6
2016-05-12T00:43:58.063Z,16.5
2016-05-12T00:44:08.063Z,16.5
2016-05-12T00:44:18.048Z,16.6
2016-05-12T00:44:28.063Z,16.6
2016-05-12T00:44:38.050Z,16.6
2016-05-12T00:44:48.034Z,16.5
2016-05-12T00:44:58.034Z,16.6
2016-05-12T00:45:08.034Z,16.5
2016-05-12T00:45:18.034Z,16.5
2016-05-12T00:45:28.018Z,16.5
2016-05-12T00:45:38.021Z,16.6
2016-05-12T00:45:48.178Z,16.5
2016-05-12T00:45:58.006Z,16.5
2016-05-12T00:46:08.006Z,16.5
2016-05-12T00:46:17.990Z,16.5
2016-05-12T00:46:27.990Z,16.5
2016-05-12T00:46:37.994Z,16.5
2016-05-12T00:46:47.994Z,16.5
2016-05-12T00:46:57.994Z,16.5
2016-05-12T00:47:07.978Z,16.5
2016-05-12T00:47:17.978Z,16.5
2016-05-12T00:47:27.978Z,16.6
2016-05-12T00:47:37.965Z,16.5
2016-05-12T00:47:47.965Z,16.5
2016-05-12T00:47:57.965Z,16.5
2016-05-12T00:48:07.965Z,16.5
2016-05-12T00:48:17.949Z,16.5
2016-05-12T00:48:27.949Z,16.5
2016-05-12T00:48:37.937Z,16.5
2016-05-12T00:48:47.937Z,16.5
2016-05-12T00:48:57.937Z,16.5
2016-05-12T00:49:07.937Z,16.5
2016-05-12T00:49:17.921Z,16.5
2016-05-12T00:49:27.921Z,16.5
2016-05-12T00:49:37.907Z,16.5
2016-05-12T00:49:47.907Z,16.5
2016-05-12T00:49:57.907Z,16.5
2016-05-12T00:50:07.907Z,16.5
2016-05-12T00:50:17.892Z,16.5
2016-05-12T00:50:27.892Z,16.5
2016-05-12T00:50:37.895Z,16.5
2016-05-12T00:50:47.879Z,16.5
2016-05-12T00:50:57.879Z,16.5
2016-05-12T00:51:07.879Z,16.4
2016-05-12T00:51:17.879Z,16.5
2016-05-12T00:51:27.863Z,16.5
2016-05-12T00:51:37.865Z,16.5
2016-05-12T00:51:47.865Z,16.5
2016-05-12T00:51:57.865Z,16.5
2016-05-12T00:52:07.850Z,16.4
2016-05-12T00:52:17.850Z,16.5
2016-05-12T00:52:27.850Z,16.5
2016-05-12T00:52:37.837Z,16.5
2016-05-12T00:52:47.837Z,16.4
2016-05-12T00:52:57.822Z,16.5
2016-05-12T00:53:07.822Z,16.4
2016-05-12T00:53:17.822Z,16.4
2016-05-12T00:53:27.822Z,16.4
2016-05-12T00:53:37.809Z,16.4
2016-05-12T00:53:47.809Z,16.4
2016-05-12T00:53:57.809Z,16.4
2016-05-12T00:54:07.793Z,16.4
2016-05-12T00:54:17.793Z,16.4
2016-05-12T00:54:27.793Z,16.5
2016-05-12T00:54:37.796Z,16.4
2016-05-12T00:54:47.781Z,16.3
2016-05-12T00:54:57.781Z,16.4
2016-05-12T00:55:07.781Z,16.4
2016-05-12T00:55:17.765Z,16.5
2016-05-12T00:55:27.765Z,16.5
2016-05-12T00:55:37.767Z,16.4
2016-05-12T00:55:47.751Z,16.5
2016-05-12T00:55:57.751Z,16.4
2016-05-12T00:56:07.736Z,16.4
2016-05-12T00:56:17.736Z,16.3
2016-05-12T00:56:27.736Z,16.4
2016-05-12T00:56:37.739Z,16.5
2016-05-12T00:56:47.723Z,16.4
2016-05-12T00:56:57.723Z,16.3
2016-05-12T00:57:07.723Z,16.3
2016-05-12T00:57:17.708Z,16.4
2016-05-12T00:57:27.708Z,16.4
2016-05-12T00:57:37.711Z,16.3
2016-05-12T00:57:47.695Z,16.4
2016-05-12T00:57:57.695Z,16.4
2016-05-12T00:58:07.695Z,16.4
2016-05-12T00:58:17.711Z,16.4
2016-05-12T00:58:27.695Z,16.3
2016-05-12T00:58:37.682Z,16.4
2016-05-12T00:58:47.667Z,16.4
2016-05-12T00:58:57.667Z,16.4
2016-05-12T00:59:07.667Z,16.4
2016-05-12T00:59:17.651Z,16.3
2016-05-12T00:59:27.651Z,16.4
2016-05-12T00:59:37.653Z,16.4
2016-05-12T00:59:47.653Z,16.4
2016-05-12T00:59:57.653Z,16.4
2016-05-12T01:00:07.637Z,16.3
2016-05-12T01:00:17.637Z,16.4
2016-05-12T01:00:27.637Z,16.4
2016-05-12T01:00:37.624Z,16.4
2016-05-12T01:00:47.624Z,16.4
2016-05-12T01:00:57.608Z,16.4
2016-05-12T01:01:07.624Z,16.4
2016-05-12T01:01:17.608Z,16.4
2016-05-12T01:01:27.608Z,16.3
2016-05-12T01:01:37.612Z,16.4
2016-05-12T01:01:47.597Z,16.3
2016-05-12T01:01:57.597Z,16.4
2016-05-12T01:02:07.581Z,16.4
2016-05-12T01:02:17.597Z,16.4
2016-05-12T01:02:27.581Z,16.4
2016-05-12T01:02:37.600Z,16.4
2016-05-12T01:02:47.568Z,16.3
2016-05-12T01:02:57.584Z,16.4
2016-05-12T01:03:07.568Z,16.4
2016-05-12T01:03:17.553Z,16.4
2016-05-12T01:03:27.553Z,16.4
2016-05-12T01:03:37.555Z,16.4
2016-05-12T01:03:47.555Z,16.3
2016-05-12T01:03:57.539Z,16.4
2016-05-12T01:04:07.539Z,16.3
2016-05-12T01:04:17.539Z,16.3
2016-05-12T01:04:27.523Z,16.4
2016-05-12T01:04:37.525Z,16.4
2016-05-12T01:04:47.525Z,16.4
2016-05-12T01:04:57.510Z,16.3
2016-05-12T01:05:07.510Z,16.4
2016-05-12T01:05:17.510Z,16.3
2016-05-12T01:05:27.510Z,16.4
2016-05-12T01:05:37.497Z,16.3
2016-05-12T01:05:47.497Z,16.4
2016-05-12T01:05:57.482Z,16.4
2016-05-12T01:06:07.482Z,16.4
2016-05-12T01:06:17.482Z,16.3
2016-05-12T01:06:27.466Z,16.4
2016-05-12T01:06:37.469Z,16.3
2016-05-12T01:06:47.469Z,16.3
2016-05-12T01:06:57.453Z,16.3
2016-05-12T01:07:07.453Z,16.3
2016-05-12T01:07:17.453Z,16.3
2016-05-12T01:07:27.453Z,16.3
2016-05-12T01:07:37.441Z,16.3
2016-05-12T01:07:47.441Z,16.3
2016-05-12T01:07:57.441Z,16.3
2016-05-12T01:08:07.425Z,16.4
2016-05-12T01:08:17.425Z,16.4
2016-05-12T01:08:27.425Z,16.3
2016-05-12T01:08:37.428Z,16.3
2016-05-12T01:08:47.444Z,16.4
2016-05-12T01:08:57.412Z,16.3
2016-05-12T01:09:07.412Z,16.3
2016-05-12T01:09:17.397Z,16.4
2016-05-12T01:09:27.397Z,16.4
2016-05-12T01:09:37.399Z,16.3
2016-05-12T01:09:47.399Z,16.3
2016-05-12T01:09:57.383Z,16.4
2016-05-12T01:10:07.383Z,16.4
2016-05-12T01:10:17.368Z,16.3
2016-05-12T01:10:27.368Z,16.4
2016-05-12T01:10:37.371Z,16.3
2016-05-12T01:10:47.371Z,16.3
2016-05-12T01:10:57.355Z,16.3
2016-05-12T01:11:07.355Z,16.5
2016-05-12T01:11:17.355Z,16.4
2016-05-12T01:11:27.339Z,16.3
2016-05-12T01:11:37.341Z,16.3
2016-05-12T01:11:47.341Z,16.4
2016-05-12T01:11:57.326Z,16.3
2016-05-12T01:12:07.326Z,16.3
2016-05-12T01:12:17.326Z,16.4
2016-05-12T01:12:27.326Z,16.4
2016-05-12T01:12:37.313Z,16.4
2016-05-12T01:12:47.313Z,16.3
2016-05-12T01:12:57.297Z,16.4
2016-05-12T01:13:07.297Z,16.4
2016-05-12T01:13:17.297Z,16.3
2016-05-12T01:13:27.282Z,16.3
2016-05-12T01:13:37.285Z,16.3
2016-05-12T01:13:47.285Z,16.3
2016-05-12T01:13:57.285Z,16.5
2016-05-12T01:14:07.269Z,16.3
2016-05-12T01:14:17.269Z,16.4
2016-05-12T01:14:27.269Z,16.3
2016-05-12T01:14:37.257Z,16.4
2016-05-12T01:14:47.257Z,16.4
2016-05-12T01:14:57.257Z,16.3
2016-05-12T01:15:07.241Z,16.4
2016-05-12T01:15:17.241Z,16.4
2016-05-12T01:15:27.241Z,16.3
2016-05-12T01:15:37.244Z,16.4
2016-05-12T01:15:47.228Z,16.5
2016-05-12T01:15:57.228Z,16.2
2016-05-12T01:16:07.228Z,16.3
2016-05-12T01:16:17.213Z,16.4
2016-05-12T01:16:27.213Z,16.3
2016-05-12T01:16:37.215Z,16.2
2016-05-12T01:16:47.230Z,16.2
2016-05-12T01:16:57.199Z,16.4
2016-05-12T01:17:07.199Z,16.3
2016-05-12T01:17:17.199Z,16.3
2016-05-12T01:17:27.183Z,16.4
2016-05-12T01:17:37.185Z,16.3
2016-05-12T01:17:47.185Z,16.2
2016-05-12T01:17:57.170Z,16.3
2016-05-12T01:18:07.170Z,16.3
2016-05-12T01:18:17.170Z,16.4
2016-05-12T01:18:27.154Z,16.3
2016-05-12T01:18:37.173Z,16.3
2016-05-12T01:18:47.157Z,16.4
2016-05-12T01:18:57.157Z,16.3
2016-05-12T01:19:07.142Z,16.3
2016-05-12T01:19:17.142Z,16.4
2016-05-12T01:19:27.142Z,16.4
2016-05-12T01:19:37.129Z,16.4
2016-05-12T01:19:47.129Z,16.4
2016-05-12T01:19:57.145Z,16.3
2016-05-12T01:20:07.113Z,16.3
2016-05-12T01:20:17.113Z,16.4
2016-05-12T01:20:27.113Z,16.4
2016-05-12T01:20:37.115Z,16.3
2016-05-12T01:20:47.100Z,16.4
2016-05-12T01:20:57.100Z,16.3
2016-05-12T01:21:07.100Z,16.4
2016-05-12T01:21:17.084Z,16.4
2016-05-12T01:21:27.084Z,16.3
2016-05-12T01:21:37.072Z,16.4
2016-05-12T01:21:47.072Z,16.3
2016-05-12T01:21:57.072Z,16.4
2016-05-12T01:22:07.072Z,16.4
2016-05-12T01:22:17.072Z,16.2
2016-05-12T01:22:27.057Z,16.3
2016-05-12T01:22:37.043Z,16.3
2016-05-12T01:22:47.043Z,16.4
2016-05-12T01:22:57.043Z,16.4
2016-05-12T01:23:07.043Z,16.3
2016-05-12T01:23:17.043Z,16.3
2016-05-12T01:23:27.028Z,16.3
2016-05-12T01:23:37.031Z,16.3
2016-05-12T01:23:47.031Z,16.4
2016-05-12T01:23:57.015Z,16.3
2016-05-12T01:24:07.015Z,16.3
2016-05-12T01:24:17.015Z,16.3
2016-05-12T01:24:27.015Z,16.3
2016-05-12T01:24:37.002Z,16.3
2016-05-12T01:24:47.002Z,16.3
2016-05-12T01:24:56.987Z,16.3
2016-05-12T01:25:06.987Z,16.3
2016-05-12T01:25:16.987Z,16.3
2016-05-12T01:25:26.987Z,16.3
2016-05-12T01:25:36.973Z,16.3
2016-05-12T01:25:46.973Z,16.3
2016-05-12T01:25:56.957Z,16.3
2016-05-12T01:26:06.957Z,16.3
2016-05-12T01:26:16.957Z,16.3
2016-05-12T01:26:26.957Z,16.3
2016-05-12T01:26:36.960Z,16.3
2016-05-12T01:26:46.945Z,16.3
2016-05-12T01:26:56.945Z,16.3
2016-05-12T01:27:06.945Z,16.2
2016-05-12T01:27:16.929Z,16.2
2016-05-12T01:27:26.929Z,16.2
2016-05-12T01:27:36.947Z,16.2
2016-05-12T01:27:46.916Z,16.2
2016-05-12T01:27:56.916Z,16.3
2016-05-12T01:28:06.900Z,16.1
2016-05-12T01:28:16.900Z,16.3
2016-05-12T01:28:26.900Z,16.2
2016-05-12T01:28:36.903Z,16.3
2016-05-12T01:28:46.887Z,16.2
2016-05-12T01:28:56.887Z,16.2
2016-05-12T01:29:06.887Z,16.2
2016-05-12T01:29:16.872Z,16.2
2016-05-12T01:29:26.872Z,16.2
2016-05-12T01:29:36.875Z,16.2
2016-05-12T01:29:46.859Z,16.2
2016-05-12T01:29:56.859Z,16.2
2016-05-12T01:30:06.859Z,16.2
2016-05-12T01:30:16.859Z,16.2
2016-05-12T01:30:26.843Z,16.2
2016-05-12T01:30:36.846Z,16.2
2016-05-12T01:30:46.831Z,16.2
2016-05-12T01:30:56.831Z,16.3
2016-05-12T01:31:06.846Z,16.3
2016-05-12T01:31:16.831Z,16.2
2016-05-12T01:31:26.831Z,16.3
2016-05-12T01:31:36.817Z,16.2
2016-05-12T01:31:46.817Z,16.1
2016-05-12T01:31:56.802Z,16.2
2016-05-12T01:32:06.802Z,16.2
2016-05-12T01:32:16.817Z,16.3
2016-05-12T01:32:26.786Z,16.3
2016-05-12T01:32:36.789Z,16.2
2016-05-12T01:32:46.789Z,16.2
2016-05-12T01:32:56.789Z,16.2
2016-05-12T01:33:06.773Z,16.1
2016-05-12T01:33:16.773Z,16.2
2016-05-12T01:33:26.758Z,16.1
2016-05-12T01:33:36.760Z,16.2
2016-05-12T01:33:46.760Z,16.3
2016-05-12T01:33:56.760Z,16.2
2016-05-12T01:34:06.760Z,16.2
2016-05-12T01:34:16.744Z,16.3
2016-05-12T01:34:26.744Z,16.2
2016-05-12T01:34:36.747Z,16.3
2016-05-12T01:34:46.731Z,16.2
2016-05-12T01:34:56.731Z,16.3
2016-05-12T01:35:06.731Z,16.2
2016-05-12T01:35:16.716Z,16.2
2016-05-12T01:35:26.716Z,16.1
2016-05-12T01:35:36.703Z,16.3
2016-05-12T01:35:46.703Z,16.2
2016-05-12T01:35:56.703Z,16.2
2016-05-12T01:36:06.703Z,16.3
2016-05-12T01:36:16.703Z,16.2
2016-05-12T01:36:26.688Z,16.2
2016-05-12T01:36:36.691Z,16.2
2016-05-12T01:36:46.675Z,16.2
2016-05-12T01:36:56.675Z,16.2
2016-05-12T01:37:06.675Z,16.2
2016-05-12T01:37:16.675Z,16.1
2016-05-12T01:37:26.659Z,16.2
2016-05-12T01:37:36.662Z,16.2
2016-05-12T01:37:46.662Z,16.3
2016-05-12T01:37:56.647Z,16.2
2016-05-12T01:38:06.647Z,16.2
2016-05-12T01:38:16.647Z,16.2
2016-05-12T01:38:26.647Z,16.3
2016-05-12T01:38:36.633Z,16.3
2016-05-12T01:38:46.617Z,16.3
2016-05-12T01:38:56.617Z,16.2
2016-05-12T01:39:06.617Z,16.2
2016-05-12T01:39:16.617Z,16.2
2016-05-12T01:39:26.617Z,16.2
2016-05-12T01:39:36.605Z,16.2
2016-05-12T01:39:46.620Z,16.3
2016-05-12T01:39:56.589Z,16.2
2016-05-12T01:40:06.589Z,16.2
2016-05-12T01:40:16.589Z,16.2
2016-05-12T01:40:26.589Z,16.2
2016-05-12T01:40:36.576Z,16.2
2016-05-12T01:40:46.576Z,16.2
2016-05-12T01:40:56.576Z,16.1
2016-05-12T01:41:06.576Z,16.2
2016-05-12T01:41:16.560Z,16.2
2016-05-12T01:41:26.560Z,16.2
2016-05-12T01:41:36.564Z,16.1
2016-05-12T01:41:46.548Z,16.2
2016-05-12T01:41:56.548Z,16.2
2016-05-12T01:42:06.548Z,16.2
2016-05-12T01:42:16.533Z,16.3
2016-05-12T01:42:26.533Z,16.2
2016-05-12T01:42:36.535Z,16.2
2016-05-12T01:42:46.519Z,16.2
2016-05-12T01:42:56.519Z,16.2
2016-05-12T01:43:06.519Z,16.2
2016-05-12T01:43:16.503Z,16.2
2016-05-12T01:43:26.503Z,16.2
2016-05-12T01:43:36.505Z,16.2
2016-05-12T01:43:46.490Z,16.3
2016-05-12T01:43:56.490Z,16.2
2016-05-12T01:44:06.490Z,16.2
2016-05-12T01:44:16.490Z,16.3
2016-05-12T01:44:26.474Z,16.3
2016-05-12T01:44:36.477Z,16.2
2016-05-12T01:44:46.477Z,16.2
2016-05-12T01:44:56.462Z,16.2
2016-05-12T01:45:06.462Z,16.2
2016-05-12T01:45:16.462Z,16.3
2016-05-12T01:45:26.446Z,16.2
2016-05-12T01:45:36.449Z,16.2
2016-05-12T01:45:46.449Z,16.2
2016-05-12T01:45:56.449Z,16.1
2016-05-12T01:46:06.449Z,16.2
2016-05-12T01:46:16.902Z,16.2
2016-05-12T01:46:26.433Z,16.2
2016-05-12T01:46:36.421Z,16.2
2016-05-12T01:46:46.421Z,16.2
2016-05-12T01:46:56.405Z,16.2
2016-05-12T01:47:06.405Z,16.2
2016-05-12T01:47:16.405Z,16.3
2016-05-12T01:47:26.405Z,16.2
2016-05-12T01:47:36.391Z,16.2
2016-05-12T01:47:46.391Z,16.1
2016-05-12T01:47:56.391Z,16.2
2016-05-12T01:48:06.376Z,16.2
2016-05-12T01:48:16.376Z,16.1
2016-05-12T01:48:26.376Z,16.2
2016-05-12T01:48:36.379Z,16.2
2016-05-12T01:48:46.363Z,16.2
2016-05-12T01:48:56.363Z,16.2
2016-05-12T01:49:06.348Z,16.2
2016-05-12T01:49:16.348Z,16.2
2016-05-12T01:49:26.348Z,16.2
2016-05-12T01:49:36.351Z,16.2
2016-05-12T01:49:46.351Z,16.2
2016-05-12T01:49:56.351Z,16.2
2016-05-12T01:50:06.335Z,16.2
2016-05-12T01:50:16.319Z,16.2
2016-05-12T01:50:26.319Z,16.2
2016-05-12T01:50:36.321Z,16.2
2016-05-12T01:50:46.321Z,16.2
2016-05-12T01:50:56.306Z,16.2
2016-05-12T01:51:06.306Z,16.1
2016-05-12T01:51:16.306Z,16.1
2016-05-12T01:51:26.290Z,16.2
2016-05-12T01:51:36.293Z,16.2
2016-05-12T01:51:46.277Z,16.1
2016-05-12T01:51:56.293Z,16.2
2016-05-12T01:52:06.277Z,16.2
2016-05-12T01:52:16.277Z,16.1
2016-05-12T01:52:26.262Z,16.1
2016-05-12T01:52:36.265Z,16.2
2016-05-12T01:52:46.265Z,16.1
2016-05-12T01:52:56.265Z,16.3
2016-05-12T01:53:06.249Z,16.2
2016-05-12T01:53:16.249Z,16.2
2016-05-12T01:53:26.234Z,16.2
2016-05-12T01:53:36.236Z,16.1
2016-05-12T01:53:46.236Z,16.1
2016-05-12T01:53:56.236Z,16.2
2016-05-12T01:54:06.236Z,16.2
2016-05-12T01:54:16.220Z,16.2
2016-05-12T01:54:26.220Z,16.1
2016-05-12T01:54:36.223Z,16.1
2016-05-12T01:54:46.207Z,16.2
2016-05-12T01:54:56.207Z,16.1
2016-05-12T01:55:06.192Z,16.2
2016-05-12T01:55:16.192Z,16.1
2016-05-12T01:55:26.207Z,16.1
2016-05-12T01:55:36.195Z,16.1
2016-05-12T01:55:46.179Z,16.1
2016-05-12T01:55:56.179Z,16.1
2016-05-12T01:56:06.179Z,16.1
2016-05-12T01:56:16.163Z,16.1
2016-05-12T01:56:26.163Z,16.1
2016-05-12T01:56:36.151Z,16.1
2016-05-12T01:56:46.151Z,16.1
2016-05-12T01:56:56.151Z,16.1
2016-05-12T01:57:06.151Z,16.2
2016-05-12T01:57:16.151Z,16.1
2016-05-12T01:57:26.135Z,16.1
2016-05-12T01:57:36.137Z,16.2
2016-05-12T01:57:46.137Z,16.1
2016-05-12T01:57:56.122Z,16.1
2016-05-12T01:58:06.122Z,16.1
2016-05-12T01:58:16.106Z,16.1
2016-05-12T01:58:26.106Z,16.1
2016-05-12T01:58:36.109Z,16.1
2016-05-12T01:58:46.109Z,16.1
2016-05-12T01:58:56.093Z,16.1
2016-05-12T01:59:06.093Z,16.2
2016-05-12T01:59:16.078Z,16.1
2016-05-12T01:59:26.078Z,16.1
2016-05-12T01:59:36.081Z,16.2
2016-05-12T01:59:46.081Z,16.1
2016-05-12T01:59:56.081Z,16.1
2016-05-12T02:00:06.065Z,16.1
2016-05-12T02:00:16.065Z,16.2
2016-05-12T02:00:26.065Z,16.1
2016-05-12T02:00:36.051Z,16.1
2016-05-12T02:00:46.051Z,16.1
2016-05-12T02:00:56.036Z,16.1
2016-05-12T02:01:06.036Z,16
2016-05-12T02:01:16.036Z,16.1
2016-05-12T02:01:26.036Z,16.1
2016-05-12T02:01:36.022Z,16.1
2016-05-12T02:01:46.303Z,16.1
2016-05-12T02:01:56.022Z,16.1
2016-05-12T02:02:06.007Z,16.1
2016-05-12T02:02:16.007Z,16.1
2016-05-12T02:02:26.007Z,16.1
2016-05-12T02:02:36.010Z,16.1
2016-05-12T02:02:46.010Z,16.1
2016-05-12T02:02:55.994Z,16.1
2016-05-12T02:03:05.978Z,16
2016-05-12T02:03:15.978Z,16.1
2016-05-12T02:03:25.978Z,16.1
2016-05-12T02:03:35.982Z,16.1
2016-05-12T02:03:45.967Z,16.1
2016-05-12T02:03:55.967Z,16.1
2016-05-12T02:04:05.967Z,16.1
2016-05-12T02:04:15.951Z,16.1
2016-05-12T02:04:25.951Z,16
2016-05-12T02:04:35.953Z,16
2016-05-12T02:04:45.953Z,16.1
2016-05-12T02:04:55.937Z,16.1
2016-05-12T02:05:05.937Z,16.1
2016-05-12T02:05:15.937Z,16
2016-05-12T02:05:25.922Z,16
2016-05-12T02:05:35.939Z,16
2016-05-12T02:05:45.908Z,16.1
2016-05-12T02:05:55.908Z,16
2016-05-12T02:06:05.908Z,16
2016-05-12T02:06:15.908Z,16
2016-05-12T02:06:25.893Z,16
2016-05-12T02:06:35.896Z,16
2016-05-12T02:06:45.896Z,16.1
2016-05-12T02:06:55.896Z,16
2016-05-12T02:07:05.880Z,16
2016-05-12T02:07:15.880Z,16.1
2016-05-12T02:07:25.864Z,16.1
2016-05-12T02:07:35.867Z,16.1
2016-05-12T02:07:45.867Z,16
2016-05-12T02:07:55.867Z,16.1
2016-05-12T02:08:05.852Z,16
2016-05-12T02:08:15.852Z,16
2016-05-12T02:08:25.852Z,16.1
2016-05-12T02:08:35.839Z,16
2016-05-12T02:08:45.839Z,16
2016-05-12T02:08:55.839Z,16
2016-05-12T02:09:05.823Z,16
2016-05-12T02:09:15.823Z,15.9
2016-05-12T02:09:25.823Z,16
2016-05-12T02:09:35.825Z,16
2016-05-12T02:09:45.810Z,16
2016-05-12T02:09:55.810Z,16
2016-05-12T02:10:05.810Z,16
2016-05-12T02:10:15.794Z,16
2016-05-12T02:10:25.794Z,16
2016-05-12T02:10:35.797Z,16
2016-05-12T02:10:45.782Z,16
2016-05-12T02:10:55.782Z,16
2016-05-12T02:11:05.782Z,16
2016-05-12T02:11:15.782Z,15.9
2016-05-12T02:11:25.766Z,15.9
2016-05-12T02:11:35.769Z,16
2016-05-12T02:11:45.769Z,16
2016-05-12T02:11:55.753Z,15.9
2016-05-12T02:12:05.753Z,16
2016-05-12T02:12:15.738Z,15.9
2016-05-12T02:12:25.738Z,15.9
2016-05-12T02:12:35.740Z,16
2016-05-12T02:12:45.740Z,16
2016-05-12T02:12:55.724Z,15.9
2016-05-12T02:13:05.724Z,16
2016-05-12T02:13:15.724Z,16
2016-05-12T02:13:25.708Z,15.9
2016-05-12T02:13:35.711Z,16